Armstrong, Iowa
Current Conditions -  °F | °C
As of 11:22 PM on Wednesday 22 Oct 2014 (Local Time) from KEST Reporting Station
Overcast Overcast  
Wind Chill: 54°   Ceiling: 9000
Heat Index: 54°   Visibility: 10mi
Dew Point: 52°   Wind: 15mph
Humidity: 93%   Direction: 180°S
Pressure: 30.03"   Gusts: NA
Location:  43.4°N, 94.48°W
Report Text: KEST 230422Z AUTO 18013KT 10SM SCT011 OVC090 12/11 A3003 RMK AO2 T01220111
Loading
Personal Weather Stations






























Interactive Weather Map
Tropical Storm Tracking
New forecast layout! Learn more

10-Day Weather Forecast

Advertisements
Track Severe Weather on mobile